sensor_id;sensor_type;location;lat;lon;timestamp;pressure;altitude;pressure_sealevel;temperature
4421;BMP180;11824;51.178;13.546;2022-08-19T00:00:13;99480.00;;;23.50
4421;BMP180;11824;51.178;13.546;2022-08-19T00:02:43;99489.00;;;23.50
4421;BMP180;11824;51.178;13.546;2022-08-19T00:05:17;99492.00;;;23.50
4421;BMP180;11824;51.178;13.546;2022-08-19T00:07:47;99484.00;;;23.40
4421;BMP180;11824;51.178;13.546;2022-08-19T00:10:17;99506.00;;;23.40
4421;BMP180;11824;51.178;13.546;2022-08-19T00:12:48;99509.00;;;23.40
4421;BMP180;11824;51.178;13.546;2022-08-19T00:15:21;99500.00;;;23.40
4421;BMP180;11824;51.178;13.546;2022-08-19T00:17:50;99506.00;;;23.40
4421;BMP180;11824;51.178;13.546;2022-08-19T00:20:20;99512.00;;;23.30
4421;BMP180;11824;51.178;13.546;2022-08-19T00:22:49;99508.00;;;23.30
4421;BMP180;11824;51.178;13.546;2022-08-19T00:25:19;99524.00;;;23.30
4421;BMP180;11824;51.178;13.546;2022-08-19T00:27:58;99533.00;;;23.30
4421;BMP180;11824;51.178;13.546;2022-08-19T00:30:27;99532.00;;;23.30
4421;BMP180;11824;51.178;13.546;2022-08-19T00:32:56;99527.00;;;23.20
4421;BMP180;11824;51.178;13.546;2022-08-19T00:35:25;99539.00;;;23.20
4421;BMP180;11824;51.178;13.546;2022-08-19T00:37:54;99526.00;;;23.20
4421;BMP180;11824;51.178;13.546;2022-08-19T00:40:23;99527.00;;;23.20
4421;BMP180;11824;51.178;13.546;2022-08-19T00:42:52;99517.00;;;23.10
4421;BMP180;11824;51.178;13.546;2022-08-19T00:45:26;99521.00;;;23.10
4421;BMP180;11824;51.178;13.546;2022-08-19T00:47:55;99526.00;;;23.10
4421;BMP180;11824;51.178;13.546;2022-08-19T00:50:24;99539.00;;;23.10
4421;BMP180;11824;51.178;13.546;2022-08-19T00:52:52;99551.00;;;23.10
4421;BMP180;11824;51.178;13.546;2022-08-19T00:55:23;99549.00;;;23.00
4421;BMP180;11824;51.178;13.546;2022-08-19T00:57:55;99543.00;;;23.00
4421;BMP180;11824;51.178;13.546;2022-08-19T01:00:27;99548.00;;;23.00
4421;BMP180;11824;51.178;13.546;2022-08-19T01:02:56;99549.00;;;23.00
4421;BMP180;11824;51.178;13.546;2022-08-19T01:05:28;99539.00;;;23.00
4421;BMP180;11824;51.178;13.546;2022-08-19T01:07:59;99536.00;;;23.00
4421;BMP180;11824;51.178;13.546;2022-08-19T01:10:30;99525.00;;;23.10
4421;BMP180;11824;51.178;13.546;2022-08-19T01:13:04;99510.00;;;23.10
4421;BMP180;11824;51.178;13.546;2022-08-19T01:15:41;99507.00;;;23.10
4421;BMP180;11824;51.178;13.546;2022-08-19T01:18:14;99502.00;;;23.00
4421;BMP180;11824;51.178;13.546;2022-08-19T01:20:44;99516.00;;;23.00
4421;BMP180;11824;51.178;13.546;2022-08-19T01:23:15;99523.00;;;23.00
4421;BMP180;11824;51.178;13.546;2022-08-19T01:25:46;99533.00;;;23.00
4421;BMP180;11824;51.178;13.546;2022-08-19T01:28:20;99536.00;;;23.00
4421;BMP180;11824;51.178;13.546;2022-08-19T01:31:11;99528.00;;;23.00
4421;BMP180;11824;51.178;13.546;2022-08-19T01:33:55;99540.00;;;23.00
4421;BMP180;11824;51.178;13.546;2022-08-19T01:36:28;99526.00;;;23.00
4421;BMP180;11824;51.178;13.546;2022-08-19T01:38:59;99524.00;;;23.00
4421;BMP180;11824;51.178;13.546;2022-08-19T01:41:30;99527.00;;;23.00
4421;BMP180;11824;51.178;13.546;2022-08-19T01:43:59;99519.00;;;23.00
4421;BMP180;11824;51.178;13.546;2022-08-19T01:46:46;99527.00;;;23.00
4421;BMP180;11824;51.178;13.546;2022-08-19T01:49:16;99544.00;;;23.00
4421;BMP180;11824;51.178;13.546;2022-08-19T01:51:45;99540.00;;;23.00
4421;BMP180;11824;51.178;13.546;2022-08-19T01:54:17;99525.00;;;23.00
4421;BMP180;11824;51.178;13.546;2022-08-19T01:56:57;99524.00;;;23.00
4421;BMP180;11824;51.178;13.546;2022-08-19T01:59:26;99525.00;;;23.00
4421;BMP180;11824;51.178;13.546;2022-08-19T02:01:56;99515.00;;;23.00
4421;BMP180;11824;51.178;13.546;2022-08-19T02:04:24;99520.00;;;23.00
4421;BMP180;11824;51.178;13.546;2022-08-19T02:06:54;99519.00;;;23.00
4421;BMP180;11824;51.178;13.546;2022-08-19T02:09:24;99520.00;;;23.00
4421;BMP180;11824;51.178;13.546;2022-08-19T02:11:53;99517.00;;;23.00
4421;BMP180;11824;51.178;13.546;2022-08-19T02:14:21;99514.00;;;23.00
4421;BMP180;11824;51.178;13.546;2022-08-19T02:16:50;99512.00;;;23.00
4421;BMP180;11824;51.178;13.546;2022-08-19T02:19:18;99519.00;;;23.00
4421;BMP180;11824;51.178;13.546;2022-08-19T02:21:47;99526.00;;;23.00
4421;BMP180;11824;51.178;13.546;2022-08-19T02:24:16;99525.00;;;23.00
4421;BMP180;11824;51.178;13.546;2022-08-19T02:26:46;99526.00;;;23.00
4421;BMP180;11824;51.178;13.546;2022-08-19T02:29:14;99518.00;;;23.00
4421;BMP180;11824;51.178;13.546;2022-08-19T02:31:43;99512.00;;;23.00
4421;BMP180;11824;51.178;13.546;2022-08-19T02:34:12;99496.00;;;23.00
4421;BMP180;11824;51.178;13.546;2022-08-19T02:36:41;99490.00;;;23.00
4421;BMP180;11824;51.178;13.546;2022-08-19T02:39:18;99505.00;;;23.00
4421;BMP180;11824;51.178;13.546;2022-08-19T02:41:47;99510.00;;;23.00
4421;BMP180;11824;51.178;13.546;2022-08-19T02:44:17;99523.00;;;23.00
4421;BMP180;11824;51.178;13.546;2022-08-19T02:46:57;99521.00;;;23.00
4421;BMP180;11824;51.178;13.546;2022-08-19T02:49:26;99519.00;;;23.00
4421;BMP180;11824;51.178;13.546;2022-08-19T02:51:55;99524.00;;;23.00
4421;BMP180;11824;51.178;13.546;2022-08-19T02:54:23;99530.00;;;23.00
4421;BMP180;11824;51.178;13.546;2022-08-19T02:56:54;99533.00;;;23.00
4421;BMP180;11824;51.178;13.546;2022-08-19T02:59:22;99537.00;;;23.00
4421;BMP180;11824;51.178;13.546;2022-08-19T03:01:53;99548.00;;;23.00
4421;BMP180;11824;51.178;13.546;2022-08-19T03:04:22;99542.00;;;22.90
4421;BMP180;11824;51.178;13.546;2022-08-19T03:06:51;99542.00;;;22.90
4421;BMP180;11824;51.178;13.546;2022-08-19T03:09:25;99537.00;;;22.90
4421;BMP180;11824;51.178;13.546;2022-08-19T03:11:55;99550.00;;;22.90
4421;BMP180;11824;51.178;13.546;2022-08-19T03:14:25;99545.00;;;22.90
4421;BMP180;11824;51.178;13.546;2022-08-19T03:16:55;99533.00;;;22.90
4421;BMP180;11824;51.178;13.546;2022-08-19T03:19:23;99536.00;;;22.90
4421;BMP180;11824;51.178;13.546;2022-08-19T03:21:52;99527.00;;;22.90
4421;BMP180;11824;51.178;13.546;2022-08-19T03:24:22;99537.00;;;22.90
4421;BMP180;11824;51.178;13.546;2022-08-19T03:26:57;99529.00;;;22.90
4421;BMP180;11824;51.178;13.546;2022-08-19T03:29:28;99528.00;;;22.90
4421;BMP180;11824;51.178;13.546;2022-08-19T03:31:59;99538.00;;;22.90
4421;BMP180;11824;51.178;13.546;2022-08-19T03:34:33;99536.00;;;22.90
4421;BMP180;11824;51.178;13.546;2022-08-19T03:37:05;99524.00;;;22.90
4421;BMP180;11824;51.178;13.546;2022-08-19T03:39:36;99530.00;;;22.90
4421;BMP180;11824;51.178;13.546;2022-08-19T03:42:07;99512.00;;;22.90
4421;BMP180;11824;51.178;13.546;2022-08-19T03:44:56;99516.00;;;22.90
4421;BMP180;11824;51.178;13.546;2022-08-19T03:47:25;99527.00;;;22.90
4421;BMP180;11824;51.178;13.546;2022-08-19T03:49:53;99529.00;;;22.90
4421;BMP180;11824;51.178;13.546;2022-08-19T03:52:22;99537.00;;;22.90
4421;BMP180;11824;51.178;13.546;2022-08-19T03:54:51;99538.00;;;22.90
4421;BMP180;11824;51.178;13.546;2022-08-19T03:57:21;99520.00;;;22.90
4421;BMP180;11824;51.178;13.546;2022-08-19T03:59:58;99538.00;;;22.90
4421;BMP180;11824;51.178;13.546;2022-08-19T04:02:39;99534.00;;;22.90
4421;BMP180;11824;51.178;13.546;2022-08-19T04:05:27;99535.00;;;22.90
4421;BMP180;11824;51.178;13.546;2022-08-19T04:07:56;99547.00;;;22.90
4421;BMP180;11824;51.178;13.546;2022-08-19T04:10:26;99543.00;;;22.90
4421;BMP180;11824;51.178;13.546;2022-08-19T04:12:57;99548.00;;;22.90
4421;BMP180;11824;51.178;13.546;2022-08-19T04:15:26;99543.00;;;22.90
4421;BMP180;11824;51.178;13.546;2022-08-19T04:17:56;99553.00;;;22.90
4421;BMP180;11824;51.178;13.546;2022-08-19T04:20:25;99547.00;;;22.90
4421;BMP180;11824;51.178;13.546;2022-08-19T04:22:53;99555.00;;;22.90
4421;BMP180;11824;51.178;13.546;2022-08-19T04:25:22;99537.00;;;22.90
4421;BMP180;11824;51.178;13.546;2022-08-19T04:27:51;99538.00;;;22.90
4421;BMP180;11824;51.178;13.546;2022-08-19T04:30:23;99532.00;;;22.90
4421;BMP180;11824;51.178;13.546;2022-08-19T04:32:52;99540.00;;;22.90
4421;BMP180;11824;51.178;13.546;2022-08-19T04:35:21;99538.00;;;22.90
4421;BMP180;11824;51.178;13.546;2022-08-19T04:37:51;99548.00;;;22.90
4421;BMP180;11824;51.178;13.546;2022-08-19T04:40:20;99543.00;;;22.90
4421;BMP180;11824;51.178;13.546;2022-08-19T04:43:03;99542.00;;;22.90
4421;BMP180;11824;51.178;13.546;2022-08-19T04:45:33;99546.00;;;22.90
4421;BMP180;11824;51.178;13.546;2022-08-19T04:48:05;99549.00;;;22.90
4421;BMP180;11824;51.178;13.546;2022-08-19T04:50:54;99561.00;;;22.90
4421;BMP180;11824;51.178;13.546;2022-08-19T04:53:28;99554.00;;;22.90
4421;BMP180;11824;51.178;13.546;2022-08-19T04:56:07;99560.00;;;22.90
4421;BMP180;11824;51.178;13.546;2022-08-19T04:58:37;99563.00;;;22.90
4421;BMP180;11824;51.178;13.546;2022-08-19T05:01:07;99563.00;;;22.90
4421;BMP180;11824;51.178;13.546;2022-08-19T05:03:37;99562.00;;;22.80
4421;BMP180;11824;51.178;13.546;2022-08-19T05:06:08;99557.00;;;22.80
4421;BMP180;11824;51.178;13.546;2022-08-19T05:08:39;99547.00;;;22.80
4421;BMP180;11824;51.178;13.546;2022-08-19T05:11:11;99548.00;;;22.80
4421;BMP180;11824;51.178;13.546;2022-08-19T05:13:41;99561.00;;;22.80
4421;BMP180;11824;51.178;13.546;2022-08-19T05:16:13;99571.00;;;22.80
4421;BMP180;11824;51.178;13.546;2022-08-19T05:18:41;99569.00;;;22.80
4421;BMP180;11824;51.178;13.546;2022-08-19T05:21:29;99583.00;;;22.80
4421;BMP180;11824;51.178;13.546;2022-08-19T05:24:16;99586.00;;;22.80
4421;BMP180;11824;51.178;13.546;2022-08-19T05:26:46;99586.00;;;22.90
4421;BMP180;11824;51.178;13.546;2022-08-19T05:29:17;99591.00;;;22.90
4421;BMP180;11824;51.178;13.546;2022-08-19T05:31:50;99592.00;;;22.90
4421;BMP180;11824;51.178;13.546;2022-08-19T05:34:22;99587.00;;;22.90
4421;BMP180;11824;51.178;13.546;2022-08-19T05:36:54;99590.00;;;22.90
4421;BMP180;11824;51.178;13.546;2022-08-19T05:39:29;99592.00;;;22.90
4421;BMP180;11824;51.178;13.546;2022-08-19T05:42:01;99587.00;;;22.90
4421;BMP180;11824;51.178;13.546;2022-08-19T05:44:33;99590.00;;;22.90
4421;BMP180;11824;51.178;13.546;2022-08-19T05:47:05;99597.00;;;22.90
4421;BMP180;11824;51.178;13.546;2022-08-19T05:49:36;99601.00;;;22.90
4421;BMP180;11824;51.178;13.546;2022-08-19T05:52:06;99610.00;;;23.00
4421;BMP180;11824;51.178;13.546;2022-08-19T05:54:36;99614.00;;;23.00
4421;BMP180;11824;51.178;13.546;2022-08-19T05:57:07;99630.00;;;23.00
4421;BMP180;11824;51.178;13.546;2022-08-19T05:59:39;99635.00;;;23.00
4421;BMP180;11824;51.178;13.546;2022-08-19T06:02:10;99642.00;;;23.00
4421;BMP180;11824;51.178;13.546;2022-08-19T06:04:40;99644.00;;;23.00
4421;BMP180;11824;51.178;13.546;2022-08-19T06:07:10;99650.00;;;23.00
4421;BMP180;11824;51.178;13.546;2022-08-19T06:09:39;99647.00;;;23.00
4421;BMP180;11824;51.178;13.546;2022-08-19T06:12:25;99654.00;;;23.00
4421;BMP180;11824;51.178;13.546;2022-08-19T06:14:56;99657.00;;;23.00
4421;BMP180;11824;51.178;13.546;2022-08-19T06:17:30;99665.00;;;23.00
4421;BMP180;11824;51.178;13.546;2022-08-19T06:20:02;99675.00;;;23.00
4421;BMP180;11824;51.178;13.546;2022-08-19T06:22:31;99680.00;;;23.00
4421;BMP180;11824;51.178;13.546;2022-08-19T06:24:59;99683.00;;;23.00
4421;BMP180;11824;51.178;13.546;2022-08-19T06:27:28;99700.00;;;23.00
4421;BMP180;11824;51.178;13.546;2022-08-19T06:30:00;99708.00;;;23.00
4421;BMP180;11824;51.178;13.546;2022-08-19T06:32:31;99714.00;;;23.00
4421;BMP180;11824;51.178;13.546;2022-08-19T06:35:01;99715.00;;;23.00
4421;BMP180;11824;51.178;13.546;2022-08-19T06:37:30;99719.00;;;23.00
4421;BMP180;11824;51.178;13.546;2022-08-19T06:39:58;99727.00;;;23.00
4421;BMP180;11824;51.178;13.546;2022-08-19T06:42:27;99727.00;;;23.00
4421;BMP180;11824;51.178;13.546;2022-08-19T06:44:57;99722.00;;;23.00
4421;BMP180;11824;51.178;13.546;2022-08-19T06:47:26;99729.00;;;23.00
4421;BMP180;11824;51.178;13.546;2022-08-19T06:49:58;99735.00;;;23.00
4421;BMP180;11824;51.178;13.546;2022-08-19T06:52:32;99731.00;;;23.00
4421;BMP180;11824;51.178;13.546;2022-08-19T06:55:04;99732.00;;;23.00
4421;BMP180;11824;51.178;13.546;2022-08-19T06:57:33;99745.00;;;23.00
4421;BMP180;11824;51.178;13.546;2022-08-19T07:00:03;99739.00;;;23.00
4421;BMP180;11824;51.178;13.546;2022-08-19T07:02:36;99737.00;;;23.00
4421;BMP180;11824;51.178;13.546;2022-08-19T07:05:09;99743.00;;;23.00
4421;BMP180;11824;51.178;13.546;2022-08-19T07:07:39;99754.00;;;23.00
4421;BMP180;11824;51.178;13.546;2022-08-19T07:10:14;99750.00;;;23.00
4421;BMP180;11824;51.178;13.546;2022-08-19T07:12:47;99755.00;;;23.00
4421;BMP180;11824;51.178;13.546;2022-08-19T07:15:17;99755.00;;;23.00
4421;BMP180;11824;51.178;13.546;2022-08-19T07:17:48;99757.00;;;23.00
4421;BMP180;11824;51.178;13.546;2022-08-19T07:20:20;99755.00;;;23.00
4421;BMP180;11824;51.178;13.546;2022-08-19T07:22:55;99754.00;;;23.00
4421;BMP180;11824;51.178;13.546;2022-08-19T07:25:30;99761.00;;;23.00
4421;BMP180;11824;51.178;13.546;2022-08-19T07:27:59;99755.00;;;23.00
4421;BMP180;11824;51.178;13.546;2022-08-19T07:30:28;99749.00;;;23.00
4421;BMP180;11824;51.178;13.546;2022-08-19T07:33:00;99754.00;;;23.00
4421;BMP180;11824;51.178;13.546;2022-08-19T07:35:31;99750.00;;;23.00
4421;BMP180;11824;51.178;13.546;2022-08-19T07:38:01;99737.00;;;23.00
4421;BMP180;11824;51.178;13.546;2022-08-19T07:40:31;99738.00;;;23.00
4421;BMP180;11824;51.178;13.546;2022-08-19T07:43:01;99744.00;;;23.00
4421;BMP180;11824;51.178;13.546;2022-08-19T07:45:30;99751.00;;;23.00
4421;BMP180;11824;51.178;13.546;2022-08-19T07:48:00;99748.00;;;23.10
4421;BMP180;11824;51.178;13.546;2022-08-19T07:50:32;99755.00;;;23.10
4421;BMP180;11824;51.178;13.546;2022-08-19T07:53:00;99752.00;;;23.20
4421;BMP180;11824;51.178;13.546;2022-08-19T07:55:29;99759.00;;;23.30
4421;BMP180;11824;51.178;13.546;2022-08-19T07:58:10;99751.00;;;23.30
4421;BMP180;11824;51.178;13.546;2022-08-19T08:00:39;99755.00;;;23.40
4421;BMP180;11824;51.178;13.546;2022-08-19T08:03:10;99752.00;;;23.40
4421;BMP180;11824;51.178;13.546;2022-08-19T08:05:41;99766.00;;;23.50
4421;BMP180;11824;51.178;13.546;2022-08-19T08:08:28;99768.00;;;23.50
4421;BMP180;11824;51.178;13.546;2022-08-19T08:11:19;99777.00;;;23.60
4421;BMP180;11824;51.178;13.546;2022-08-19T08:13:50;99776.00;;;23.60
4421;BMP180;11824;51.178;13.546;2022-08-19T08:16:30;99779.00;;;23.60
4421;BMP180;11824;51.178;13.546;2022-08-19T08:19:01;99772.00;;;23.60
4421;BMP180;11824;51.178;13.546;2022-08-19T08:21:42;99770.00;;;23.60
4421;BMP180;11824;51.178;13.546;2022-08-19T08:24:15;99764.00;;;23.70
4421;BMP180;11824;51.178;13.546;2022-08-19T08:26:45;99769.00;;;23.70
4421;BMP180;11824;51.178;13.546;2022-08-19T08:29:23;99769.00;;;23.70
4421;BMP180;11824;51.178;13.546;2022-08-19T08:32:01;99763.00;;;23.80
4421;BMP180;11824;51.178;13.546;2022-08-19T08:34:41;99762.00;;;23.80
4421;BMP180;11824;51.178;13.546;2022-08-19T08:37:11;99764.00;;;23.80
4421;BMP180;11824;51.178;13.546;2022-08-19T08:39:42;99780.00;;;23.80
4421;BMP180;11824;51.178;13.546;2022-08-19T08:42:19;99789.00;;;23.80
4421;BMP180;11824;51.178;13.546;2022-08-19T08:44:59;99789.00;;;23.80
4421;BMP180;11824;51.178;13.546;2022-08-19T08:47:32;99786.00;;;23.80
4421;BMP180;11824;51.178;13.546;2022-08-19T08:50:11;99789.00;;;23.80
4421;BMP180;11824;51.178;13.546;2022-08-19T08:52:45;99793.00;;;23.80
4421;BMP180;11824;51.178;13.546;2022-08-19T08:55:17;99797.00;;;23.80
4421;BMP180;11824;51.178;13.546;2022-08-19T08:57:52;99796.00;;;23.80
4421;BMP180;11824;51.178;13.546;2022-08-19T09:00:26;99794.00;;;23.80
4421;BMP180;11824;51.178;13.546;2022-08-19T09:02:59;99791.00;;;23.90
4421;BMP180;11824;51.178;13.546;2022-08-19T09:05:39;99797.00;;;23.90
4421;BMP180;11824;51.178;13.546;2022-08-19T09:08:22;99810.00;;;24.00
4421;BMP180;11824;51.178;13.546;2022-08-19T09:10:57;99819.00;;;24.00
4421;BMP180;11824;51.178;13.546;2022-08-19T09:13:32;99824.00;;;24.00
4421;BMP180;11824;51.178;13.546;2022-08-19T09:16:09;99810.00;;;24.00
4421;BMP180;11824;51.178;13.546;2022-08-19T09:18:40;99808.00;;;23.90
4421;BMP180;11824;51.178;13.546;2022-08-19T09:21:11;99811.00;;;23.90
4421;BMP180;11824;51.178;13.546;2022-08-19T09:23:43;99811.00;;;23.80
4421;BMP180;11824;51.178;13.546;2022-08-19T09:26:18;99806.00;;;23.80
4421;BMP180;11824;51.178;13.546;2022-08-19T09:28:56;99801.00;;;23.80
4421;BMP180;11824;51.178;13.546;2022-08-19T09:31:27;99808.00;;;23.80
4421;BMP180;11824;51.178;13.546;2022-08-19T09:33:57;99803.00;;;23.80
4421;BMP180;11824;51.178;13.546;2022-08-19T09:36:28;99805.00;;;23.90
4421;BMP180;11824;51.178;13.546;2022-08-19T09:39:04;99794.00;;;23.90
4421;BMP180;11824;51.178;13.546;2022-08-19T09:41:42;99794.00;;;23.90
4421;BMP180;11824;51.178;13.546;2022-08-19T09:44:15;99790.00;;;23.90
4421;BMP180;11824;51.178;13.546;2022-08-19T09:46:45;99787.00;;;24.00
4421;BMP180;11824;51.178;13.546;2022-08-19T09:49:16;99776.00;;;24.10
4421;BMP180;11824;51.178;13.546;2022-08-19T09:51:50;99778.00;;;24.30
4421;BMP180;11824;51.178;13.546;2022-08-19T09:54:23;99769.00;;;24.40
4421;BMP180;11824;51.178;13.546;2022-08-19T09:56:53;99762.00;;;24.70
4421;BMP180;11824;51.178;13.546;2022-08-19T09:59:23;99763.00;;;25.00
4421;BMP180;11824;51.178;13.546;2022-08-19T10:01:53;99765.00;;;25.30
4421;BMP180;11824;51.178;13.546;2022-08-19T10:04:30;99764.00;;;25.60
4421;BMP180;11824;51.178;13.546;2022-08-19T10:07:12;99777.00;;;25.80
4421;BMP180;11824;51.178;13.546;2022-08-19T10:09:42;99785.00;;;25.90
4421;BMP180;11824;51.178;13.546;2022-08-19T10:12:12;99779.00;;;25.90
4421;BMP180;11824;51.178;13.546;2022-08-19T10:14:46;99779.00;;;26.00
4421;BMP180;11824;51.178;13.546;2022-08-19T10:17:15;99780.00;;;26.00
4421;BMP180;11824;51.178;13.546;2022-08-19T10:19:48;99786.00;;;25.90
4421;BMP180;11824;51.178;13.546;2022-08-19T10:22:23;99788.00;;;25.80
4421;BMP180;11824;51.178;13.546;2022-08-19T10:24:55;99787.00;;;25.80
4421;BMP180;11824;51.178;13.546;2022-08-19T10:27:24;99800.00;;;25.70
4421;BMP180;11824;51.178;13.546;2022-08-19T10:29:58;99794.00;;;25.70
4421;BMP180;11824;51.178;13.546;2022-08-19T10:32:27;99793.00;;;25.80
4421;BMP180;11824;51.178;13.546;2022-08-19T10:35:01;99794.00;;;26.00
4421;BMP180;11824;51.178;13.546;2022-08-19T10:37:32;99792.00;;;26.20
4421;BMP180;11824;51.178;13.546;2022-08-19T10:40:03;99806.00;;;26.40
4421;BMP180;11824;51.178;13.546;2022-08-19T10:42:33;99817.00;;;26.60
4421;BMP180;11824;51.178;13.546;2022-08-19T10:45:02;99813.00;;;26.70
4421;BMP180;11824;51.178;13.546;2022-08-19T10:47:34;99819.00;;;26.70
4421;BMP180;11824;51.178;13.546;2022-08-19T10:50:09;99827.00;;;26.70
4421;BMP180;11824;51.178;13.546;2022-08-19T10:52:56;99826.00;;;26.60
4421;BMP180;11824;51.178;13.546;2022-08-19T10:55:26;99826.00;;;26.60
4421;BMP180;11824;51.178;13.546;2022-08-19T10:58:14;99821.00;;;26.50
4421;BMP180;11824;51.178;13.546;2022-08-19T11:00:51;99828.00;;;26.40
4421;BMP180;11824;51.178;13.546;2022-08-19T11:03:21;99837.00;;;26.30
4421;BMP180;11824;51.178;13.546;2022-08-19T11:05:58;99832.00;;;26.20
4421;BMP180;11824;51.178;13.546;2022-08-19T11:08:27;99840.00;;;26.10
4421;BMP180;11824;51.178;13.546;2022-08-19T11:11:01;99851.00;;;26.00
4421;BMP180;11824;51.178;13.546;2022-08-19T11:13:32;99843.00;;;25.90
4421;BMP180;11824;51.178;13.546;2022-08-19T11:16:05;99846.00;;;25.80
4421;BMP180;11824;51.178;13.546;2022-08-19T11:18:37;99854.00;;;25.80
4421;BMP180;11824;51.178;13.546;2022-08-19T11:21:12;99867.00;;;25.70
4421;BMP180;11824;51.178;13.546;2022-08-19T11:23:42;99864.00;;;25.70
4421;BMP180;11824;51.178;13.546;2022-08-19T11:26:13;99864.00;;;25.60
4421;BMP180;11824;51.178;13.546;2022-08-19T11:28:44;99866.00;;;25.50
4421;BMP180;11824;51.178;13.546;2022-08-19T11:31:19;99871.00;;;25.50
4421;BMP180;11824;51.178;13.546;2022-08-19T11:33:51;99870.00;;;25.50
4421;BMP180;11824;51.178;13.546;2022-08-19T11:36:21;99866.00;;;25.50
4421;BMP180;11824;51.178;13.546;2022-08-19T11:38:51;99864.00;;;25.50
4421;BMP180;11824;51.178;13.546;2022-08-19T11:41:23;99858.00;;;25.50
4421;BMP180;11824;51.178;13.546;2022-08-19T11:43:53;99861.00;;;25.60
4421;BMP180;11824;51.178;13.546;2022-08-19T11:46:25;99875.00;;;25.70
4421;BMP180;11824;51.178;13.546;2022-08-19T11:48:56;99889.00;;;25.70
4421;BMP180;11824;51.178;13.546;2022-08-19T11:51:27;99878.00;;;25.70
4421;BMP180;11824;51.178;13.546;2022-08-19T11:53:57;99871.00;;;25.80
4421;BMP180;11824;51.178;13.546;2022-08-19T11:56:28;99864.00;;;25.80
4421;BMP180;11824;51.178;13.546;2022-08-19T11:58:58;99864.00;;;25.80
4421;BMP180;11824;51.178;13.546;2022-08-19T12:01:29;99865.00;;;25.80
4421;BMP180;11824;51.178;13.546;2022-08-19T12:03:59;99860.00;;;25.70
4421;BMP180;11824;51.178;13.546;2022-08-19T12:06:32;99859.00;;;25.60
4421;BMP180;11824;51.178;13.546;2022-08-19T12:09:04;99857.00;;;25.60
4421;BMP180;11824;51.178;13.546;2022-08-19T12:11:34;99857.00;;;25.60
4421;BMP180;11824;51.178;13.546;2022-08-19T12:14:05;99858.00;;;25.60
4421;BMP180;11824;51.178;13.546;2022-08-19T12:16:42;99861.00;;;25.60
4421;BMP180;11824;51.178;13.546;2022-08-19T12:19:17;99859.00;;;25.60
4421;BMP180;11824;51.178;13.546;2022-08-19T12:21:49;99864.00;;;25.50
4421;BMP180;11824;51.178;13.546;2022-08-19T12:24:20;99863.00;;;25.40
4421;BMP180;11824;51.178;13.546;2022-08-19T12:26:52;99871.00;;;25.40
4421;BMP180;11824;51.178;13.546;2022-08-19T12:29:27;99877.00;;;25.30
4421;BMP180;11824;51.178;13.546;2022-08-19T12:31:57;99893.00;;;25.30
4421;BMP180;11824;51.178;13.546;2022-08-19T12:34:38;99893.00;;;25.20
4421;BMP180;11824;51.178;13.546;2022-08-19T12:37:07;99893.00;;;25.10
4421;BMP180;11824;51.178;13.546;2022-08-19T12:39:37;99893.00;;;25.10
4421;BMP180;11824;51.178;13.546;2022-08-19T12:42:09;99903.00;;;25.00
4421;BMP180;11824;51.178;13.546;2022-08-19T12:44:40;99880.00;;;24.90
4421;BMP180;11824;51.178;13.546;2022-08-19T12:47:12;99887.00;;;24.90
4421;BMP180;11824;51.178;13.546;2022-08-19T12:49:42;99892.00;;;24.80
4421;BMP180;11824;51.178;13.546;2022-08-19T12:52:23;99891.00;;;24.80
4421;BMP180;11824;51.178;13.546;2022-08-19T12:54:54;99888.00;;;24.80
4421;BMP180;11824;51.178;13.546;2022-08-19T12:57:27;99895.00;;;24.80
4421;BMP180;11824;51.178;13.546;2022-08-19T13:00:00;99896.00;;;24.80
4421;BMP180;11824;51.178;13.546;2022-08-19T13:02:32;99898.00;;;24.80
4421;BMP180;11824;51.178;13.546;2022-08-19T13:05:08;99886.00;;;24.80
4421;BMP180;11824;51.178;13.546;2022-08-19T13:07:38;99885.00;;;24.80
4421;BMP180;11824;51.178;13.546;2022-08-19T13:10:09;99889.00;;;24.80
4421;BMP180;11824;51.178;13.546;2022-08-19T13:12:42;99889.00;;;24.70
4421;BMP180;11824;51.178;13.546;2022-08-19T13:15:11;99897.00;;;24.70
4421;BMP180;11824;51.178;13.546;2022-08-19T13:17:41;99890.00;;;24.70
4421;BMP180;11824;51.178;13.546;2022-08-19T13:20:11;99883.00;;;24.70
4421;BMP180;11824;51.178;13.546;2022-08-19T13:22:40;99885.00;;;24.70
4421;BMP180;11824;51.178;13.546;2022-08-19T13:25:10;99885.00;;;24.70
4421;BMP180;11824;51.178;13.546;2022-08-19T13:27:41;99875.00;;;24.70
4421;BMP180;11824;51.178;13.546;2022-08-19T13:30:12;99879.00;;;24.60
4421;BMP180;11824;51.178;13.546;2022-08-19T13:32:59;99868.00;;;24.60
4421;BMP180;11824;51.178;13.546;2022-08-19T13:35:45;99875.00;;;24.70
4421;BMP180;11824;51.178;13.546;2022-08-19T13:38:17;99882.00;;;24.70
4421;BMP180;11824;51.178;13.546;2022-08-19T13:40:48;99881.00;;;24.70
4421;BMP180;11824;51.178;13.546;2022-08-19T13:43:22;99876.00;;;24.70
4421;BMP180;11824;51.178;13.546;2022-08-19T13:45:53;99873.00;;;24.70
4421;BMP180;11824;51.178;13.546;2022-08-19T13:48:25;99871.00;;;24.70
4421;BMP180;11824;51.178;13.546;2022-08-19T13:50:55;99875.00;;;24.70
4421;BMP180;11824;51.178;13.546;2022-08-19T13:53:24;99889.00;;;24.70
4421;BMP180;11824;51.178;13.546;2022-08-19T13:55:53;99887.00;;;24.70
4421;BMP180;11824;51.178;13.546;2022-08-19T13:58:23;99875.00;;;24.80
4421;BMP180;11824;51.178;13.546;2022-08-19T14:00:52;99878.00;;;24.80
4421;BMP180;11824;51.178;13.546;2022-08-19T14:03:21;99876.00;;;24.80
4421;BMP180;11824;51.178;13.546;2022-08-19T14:05:51;99871.00;;;24.80
4421;BMP180;11824;51.178;13.546;2022-08-19T14:08:21;99861.00;;;24.80
4421;BMP180;11824;51.178;13.546;2022-08-19T14:10:52;99870.00;;;24.80
4421;BMP180;11824;51.178;13.546;2022-08-19T14:13:24;99868.00;;;24.80
4421;BMP180;11824;51.178;13.546;2022-08-19T14:15:53;99870.00;;;24.80
4421;BMP180;11824;51.178;13.546;2022-08-19T14:18:21;99875.00;;;24.80
4421;BMP180;11824;51.178;13.546;2022-08-19T14:20:55;99878.00;;;24.70
4421;BMP180;11824;51.178;13.546;2022-08-19T14:23:25;99891.00;;;24.70
4421;BMP180;11824;51.178;13.546;2022-08-19T14:25:56;99890.00;;;24.70
4421;BMP180;11824;51.178;13.546;2022-08-19T14:28:32;99899.00;;;24.70
4421;BMP180;11824;51.178;13.546;2022-08-19T14:31:01;99885.00;;;24.60
4421;BMP180;11824;51.178;13.546;2022-08-19T14:33:30;99879.00;;;24.60
4421;BMP180;11824;51.178;13.546;2022-08-19T14:35:59;99884.00;;;24.60